createdAt,value
2018-09-02T00:00:46.097Z,61.40
2018-09-02T00:03:14.186Z,60.80
2018-09-02T00:05:42.256Z,60.80
2018-09-02T00:08:10.353Z,61.00
2018-09-02T00:10:38.440Z,61.10
2018-09-02T00:13:06.528Z,61.00
2018-09-02T00:15:34.606Z,61.00
2018-09-02T00:18:02.722Z,61.20
2018-09-02T00:20:30.846Z,61.90
2018-09-02T00:22:58.903Z,61.20
2018-09-02T00:25:27.056Z,61.30
2018-09-02T00:27:55.134Z,61.20
2018-09-02T00:30:23.216Z,61.30
2018-09-02T00:32:51.305Z,61.40
2018-09-02T00:35:19.375Z,61.60
2018-09-02T00:37:47.651Z,61.70
2018-09-02T00:40:15.726Z,61.60
2018-09-02T00:42:43.898Z,63.40
2018-09-02T00:45:11.960Z,63.00
2018-09-02T00:47:40.046Z,62.70
2018-09-02T00:50:08.628Z,62.60
2018-09-02T00:52:37.123Z,62.40
2018-09-02T00:55:05.194Z,62.30
2018-09-02T00:57:33.274Z,62.30
2018-09-02T01:00:01.367Z,62.40
2018-09-02T01:02:30.901Z,62.20
2018-09-02T01:04:58.962Z,62.30
2018-09-02T01:07:27.034Z,62.20
2018-09-02T01:09:55.107Z,62.30
2018-09-02T01:12:23.188Z,62.40
2018-09-02T01:14:51.255Z,62.30
2018-09-02T01:17:19.334Z,62.40
2018-09-02T01:19:47.405Z,62.50
2018-09-02T01:22:15.473Z,62.70
2018-09-02T01:24:43.570Z,62.50
2018-09-02T01:27:11.635Z,62.50
2018-09-02T01:29:39.706Z,62.60
2018-09-02T01:32:07.775Z,62.70
2018-09-02T01:34:35.861Z,62.70
2018-09-02T01:37:03.962Z,62.90
2018-09-02T01:39:32.051Z,63.10
2018-09-02T01:42:00.126Z,63.00
2018-09-02T01:44:29.044Z,63.00
2018-09-02T01:46:57.113Z,63.00
2018-09-02T01:49:25.181Z,63.30
2018-09-02T01:51:53.287Z,63.20
2018-09-02T01:54:21.652Z,63.40
2018-09-02T01:56:49.732Z,63.40
2018-09-02T01:59:17.793Z,63.50
2018-09-02T02:01:45.870Z,63.60
2018-09-02T02:04:13.927Z,63.50
2018-09-02T02:06:42.124Z,63.70
2018-09-02T02:09:11.227Z,63.60
2018-09-02T02:11:39.495Z,63.70
2018-09-02T02:14:07.874Z,64.00
2018-09-02T02:16:35.994Z,63.60
2018-09-02T02:19:04.262Z,63.90
2018-09-02T02:21:32.322Z,63.70
2018-09-02T02:24:00.382Z,63.70
2018-09-02T02:26:28.458Z,63.80
2018-09-02T02:28:56.530Z,63.90
2018-09-02T02:31:24.623Z,63.90
2018-09-02T02:33:52.715Z,63.80
2018-09-02T02:36:20.901Z,63.70
2018-09-02T02:38:48.974Z,63.80
2018-09-02T02:41:17.051Z,63.90
2018-09-02T02:43:45.140Z,63.80
2018-09-02T02:46:13.211Z,63.60
2018-09-02T02:48:41.361Z,63.70
2018-09-02T02:51:09.431Z,63.70
2018-09-02T02:53:37.491Z,64.50
2018-09-02T02:56:05.994Z,64.40
2018-09-02T02:58:34.067Z,64.50
2018-09-02T03:01:02.163Z,64.30
2018-09-02T03:03:30.242Z,64.20
2018-09-02T03:05:58.312Z,64.10
2018-09-02T03:08:26.398Z,64.20
2018-09-02T03:10:54.533Z,64.40
2018-09-02T03:13:22.578Z,64.40
2018-09-02T03:15:50.672Z,64.40
2018-09-02T03:18:18.771Z,64.20
2018-09-02T03:20:46.862Z,64.30
2018-09-02T03:23:14.951Z,64.30
2018-09-02T03:25:43.028Z,64.50
2018-09-02T03:28:11.130Z,64.30
2018-09-02T03:30:39.207Z,64.20
2018-09-02T03:33:07.297Z,64.30
2018-09-02T03:35:35.386Z,64.40
2018-09-02T03:38:03.454Z,64.60
2018-09-02T03:40:31.542Z,64.50
2018-09-02T03:42:59.618Z,64.40
2018-09-02T03:45:27.692Z,64.50
2018-09-02T03:47:55.759Z,64.10
2018-09-02T03:50:23.819Z,64.50
2018-09-02T03:52:51.900Z,64.50
2018-09-02T03:55:19.955Z,64.60
2018-09-02T03:57:48.031Z,64.50
2018-09-02T04:00:16.102Z,64.70
2018-09-02T04:02:44.179Z,64.70
2018-09-02T04:05:12.269Z,64.90
2018-09-02T04:07:40.327Z,64.80
2018-09-02T04:10:08.386Z,64.90
2018-09-02T04:12:36.498Z,64.90
2018-09-02T04:15:04.879Z,65.50
2018-09-02T04:17:32.982Z,65.00
2018-09-02T04:20:01.087Z,65.10
2018-09-02T04:22:29.151Z,65.10
2018-09-02T04:24:57.234Z,65.20
2018-09-02T04:27:25.311Z,65.20
2018-09-02T04:29:53.770Z,65.20
2018-09-02T04:32:21.855Z,65.10
2018-09-02T04:34:49.935Z,65.10
2018-09-02T04:37:18.016Z,65.20
2018-09-02T04:39:46.086Z,65.20
2018-09-02T04:42:14.210Z,64.70
2018-09-02T04:44:42.282Z,65.40
2018-09-02T04:47:10.376Z,65.30
2018-09-02T04:49:38.446Z,65.50
2018-09-02T04:52:06.543Z,65.60
2018-09-02T04:54:34.802Z,65.50
2018-09-02T04:57:02.886Z,65.40
2018-09-02T04:59:30.947Z,65.70
2018-09-02T05:01:59.017Z,65.80
2018-09-02T05:04:27.087Z,65.60
2018-09-02T05:06:55.161Z,65.70
2018-09-02T05:09:23.252Z,65.60
2018-09-02T05:11:51.315Z,65.80
2018-09-02T05:14:19.513Z,65.90
2018-09-02T05:16:47.476Z,66.10
2018-09-02T05:19:15.919Z,66.20
2018-09-02T05:21:44.007Z,66.10
2018-09-02T05:24:12.085Z,66.00
2018-09-02T05:26:40.174Z,66.30
2018-09-02T05:29:08.247Z,68.00
2018-09-02T05:31:36.369Z,68.20
2018-09-02T05:34:04.460Z,68.00
2018-09-02T05:36:32.543Z,67.80
2018-09-02T05:39:00.615Z,67.80
2018-09-02T05:41:28.751Z,67.70
2018-09-02T05:43:56.829Z,67.90
2018-09-02T05:46:24.879Z,68.00
2018-09-02T05:48:52.955Z,68.10
2018-09-02T05:51:21.043Z,68.60
2018-09-02T05:53:49.131Z,68.20
2018-09-02T05:56:17.188Z,68.40
2018-09-02T05:58:45.279Z,68.40
2018-09-02T06:01:13.376Z,68.50
2018-09-02T06:03:41.483Z,68.50
2018-09-02T06:06:09.590Z,68.90
2018-09-02T06:08:37.675Z,69.00
2018-09-02T06:11:05.775Z,69.90
2018-09-02T06:13:33.856Z,70.10
2018-09-02T06:16:01.947Z,70.70
2018-09-02T06:18:30.031Z,70.90
2018-09-02T06:20:58.102Z,71.10
2018-09-02T06:23:26.193Z,71.60
2018-09-02T06:25:54.268Z,73.50
2018-09-02T06:28:22.427Z,74.00
2018-09-02T06:30:50.508Z,75.10
2018-09-02T06:33:18.587Z,75.60
2018-09-02T06:35:46.639Z,75.80
2018-09-02T06:38:14.742Z,77.10
2018-09-02T06:40:42.833Z,76.90
2018-09-02T06:43:10.899Z,77.60
2018-09-02T06:45:38.998Z,78.50
2018-09-02T06:48:07.359Z,78.60
2018-09-02T06:50:35.454Z,78.50
2018-09-02T06:53:03.550Z,78.20
2018-09-02T06:55:31.679Z,78.30
2018-09-02T06:57:59.739Z,78.00
2018-09-02T07:00:27.810Z,79.20
2018-09-02T07:02:55.907Z,78.70
2018-09-02T07:05:24.077Z,78.70
2018-09-02T07:07:52.155Z,78.30
2018-09-02T07:10:20.260Z,78.60
2018-09-02T07:12:48.330Z,78.40
2018-09-02T07:15:16.406Z,78.60
2018-09-02T07:17:44.525Z,78.80
2018-09-02T07:20:12.786Z,78.80
2018-09-02T07:22:40.747Z,78.70
2018-09-02T07:25:08.848Z,78.90
2018-09-02T07:27:36.938Z,78.50
2018-09-02T07:30:05.055Z,78.50
2018-09-02T07:32:33.147Z,78.90
2018-09-02T07:35:01.237Z,79.00
2018-09-02T07:37:29.323Z,78.80
2018-09-02T07:39:57.402Z,78.90
2018-09-02T07:42:25.471Z,78.90
2018-09-02T07:44:53.555Z,78.70
2018-09-02T07:47:21.687Z,78.60
2018-09-02T07:49:49.785Z,78.10
2018-09-02T07:52:17.875Z,78.20
2018-09-02T07:54:45.976Z,78.20
2018-09-02T07:57:14.091Z,77.30
2018-09-02T07:59:42.294Z,76.90
2018-09-02T08:02:10.371Z,76.40
2018-09-02T08:04:38.446Z,76.00
2018-09-02T08:07:06.563Z,75.90
2018-09-02T08:09:34.672Z,75.40
2018-09-02T08:12:02.743Z,74.90
2018-09-02T08:14:30.930Z,74.80
2018-09-02T08:16:59.023Z,74.50
2018-09-02T08:19:27.104Z,74.20
2018-09-02T08:21:55.187Z,74.10
2018-09-02T08:24:23.273Z,73.80
2018-09-02T08:26:51.357Z,73.80
2018-09-02T08:29:19.418Z,73.40
2018-09-02T08:31:47.651Z,73.40
2018-09-02T08:34:15.744Z,73.30
2018-09-02T08:36:43.839Z,72.80
2018-09-02T08:39:12.414Z,72.50
2018-09-02T08:41:41.787Z,72.10
2018-09-02T08:44:09.897Z,71.50
2018-09-02T08:46:38.428Z,71.30
2018-09-02T08:49:06.775Z,71.10
2018-09-02T08:51:34.899Z,70.80
2018-09-02T08:54:02.971Z,71.10
2018-09-02T08:56:31.218Z,71.30
2018-09-02T08:58:59.282Z,70.50
2018-09-02T09:01:27.441Z,69.50
2018-09-02T09:03:55.508Z,68.90
2018-09-02T09:06:24.019Z,69.20
2018-09-02T09:08:52.387Z,68.40
2018-09-02T09:11:20.328Z,68.50
2018-09-02T09:13:48.407Z,68.40
2018-09-02T09:16:16.520Z,68.00
2018-09-02T09:18:44.587Z,67.60
2018-09-02T09:21:12.711Z,67.30
2018-09-02T09:23:40.771Z,67.60
2018-09-02T09:26:08.856Z,67.20
2018-09-02T09:28:36.919Z,67.10
2018-09-02T09:31:05.195Z,66.60
2018-09-02T09:33:33.259Z,66.10
2018-09-02T09:36:01.354Z,65.50
2018-09-02T09:38:29.433Z,65.00
2018-09-02T09:40:57.491Z,65.10
2018-09-02T09:43:25.558Z,64.90
2018-09-02T09:45:53.658Z,63.80
2018-09-02T09:48:21.767Z,63.00
2018-09-02T09:50:49.778Z,62.90
2018-09-02T09:53:17.854Z,61.70
2018-09-02T09:55:45.920Z,61.70
2018-09-02T09:58:13.976Z,61.30
2018-09-02T10:00:47.582Z,60.60
2018-09-02T10:03:15.763Z,60.30
2018-09-02T10:05:43.852Z,60.40
2018-09-02T10:08:11.988Z,60.10
2018-09-02T10:10:40.435Z,59.00
2018-09-02T10:13:08.560Z,58.90
2018-09-02T10:15:37.330Z,58.40
2018-09-02T10:18:05.504Z,58.40
2018-09-02T10:20:33.642Z,58.20
2018-09-02T10:23:02.738Z,57.80
2018-09-02T10:25:30.816Z,57.40
2018-09-02T10:27:59.235Z,58.70
2018-09-02T10:30:27.336Z,58.10
2018-09-02T10:32:55.799Z,57.00
2018-09-02T10:35:23.871Z,56.80
2018-09-02T10:37:51.947Z,57.10
2018-09-02T10:40:20.034Z,56.00
2018-09-02T10:42:48.338Z,56.30
2018-09-02T10:45:16.573Z,55.60
2018-09-02T10:47:44.639Z,55.20
2018-09-02T10:50:12.963Z,54.70
2018-09-02T10:52:41.091Z,54.90
2018-09-02T10:55:09.239Z,54.80
2018-09-02T10:57:37.299Z,53.10
2018-09-02T11:00:06.739Z,54.10
2018-09-02T11:02:34.825Z,53.40
2018-09-02T11:05:02.999Z,53.10
2018-09-02T11:07:31.105Z,52.50
2018-09-02T11:09:59.158Z,52.80
2018-09-02T11:12:27.235Z,52.70
2018-09-02T11:14:55.314Z,53.00
2018-09-02T11:17:23.411Z,53.80
2018-09-02T11:19:51.468Z,52.80
2018-09-02T11:22:19.546Z,51.10
2018-09-02T11:24:47.618Z,52.40
2018-09-02T11:27:15.678Z,51.90
2018-09-02T11:29:43.823Z,52.40
2018-09-02T11:32:11.898Z,52.20
2018-09-02T11:34:39.975Z,52.10
2018-09-02T11:37:08.047Z,52.10
2018-09-02T11:39:36.120Z,52.10
2018-09-02T11:42:04.186Z,52.30
2018-09-02T11:44:32.273Z,52.10
2018-09-02T11:47:00.402Z,51.80
2018-09-02T11:49:28.455Z,51.50
2018-09-02T11:51:56.548Z,51.40
2018-09-02T11:54:24.607Z,51.10
2018-09-02T11:56:52.691Z,50.80
2018-09-02T11:59:20.763Z,50.50
2018-09-02T12:01:48.860Z,50.90
2018-09-02T12:04:16.935Z,50.50
2018-09-02T12:06:45.118Z,50.20
2018-09-02T12:09:13.196Z,49.60
2018-09-02T12:11:41.359Z,49.40
2018-09-02T12:14:09.403Z,49.30
2018-09-02T12:16:37.478Z,49.20
2018-09-02T12:19:05.647Z,49.20
2018-09-02T12:21:33.710Z,49.50
2018-09-02T12:24:01.789Z,49.90
2018-09-02T12:26:29.854Z,48.60
2018-09-02T12:28:57.938Z,49.20
2018-09-02T12:31:26.055Z,49.50
2018-09-02T12:33:54.080Z,49.60
2018-09-02T12:36:22.159Z,49.00
2018-09-02T12:38:50.245Z,49.40
2018-09-02T12:41:18.428Z,49.70
2018-09-02T12:43:46.539Z,49.70
2018-09-02T12:46:14.598Z,49.30
2018-09-02T12:48:42.708Z,49.80
2018-09-02T12:51:10.781Z,49.30
2018-09-02T12:53:38.861Z,48.90
2018-09-02T12:56:06.971Z,48.60
2018-09-02T12:58:35.037Z,47.50
2018-09-02T13:01:03.130Z,47.00
2018-09-02T13:03:31.182Z,47.10
2018-09-02T13:05:59.331Z,47.20
2018-09-02T13:08:27.403Z,46.60
2018-09-02T13:10:55.795Z,46.60
2018-09-02T13:13:23.959Z,46.10
2018-09-02T13:15:52.019Z,46.20
2018-09-02T13:18:20.148Z,46.20
2018-09-02T13:20:48.231Z,46.10
2018-09-02T13:23:16.326Z,45.80
2018-09-02T13:25:44.386Z,44.30
2018-09-02T13:28:12.476Z,44.90
2018-09-02T13:30:40.715Z,43.90
2018-09-02T13:33:08.805Z,44.00
2018-09-02T13:35:36.888Z,44.80
2018-09-02T13:38:04.954Z,44.50
2018-09-02T13:40:33.038Z,45.20
2018-09-02T13:43:01.119Z,44.40
2018-09-02T13:45:29.203Z,45.20
2018-09-02T13:47:57.275Z,44.40
2018-09-02T13:50:25.348Z,44.60
2018-09-02T13:52:53.418Z,44.30
2018-09-02T13:55:21.475Z,44.10
2018-09-02T13:57:49.563Z,43.80
2018-09-02T14:00:17.633Z,43.80
2018-09-02T14:02:45.979Z,44.00
2018-09-02T14:05:14.118Z,44.10
2018-09-02T14:07:42.235Z,43.30
2018-09-02T14:10:10.261Z,44.20
2018-09-02T14:12:38.322Z,43.40
2018-09-02T14:15:06.611Z,43.60
2018-09-02T14:17:34.719Z,43.40
2018-09-02T14:20:02.931Z,44.50
2018-09-02T14:22:31.218Z,43.10
2018-09-02T14:24:59.291Z,42.40
2018-09-02T14:27:27.348Z,43.00
2018-09-02T14:29:55.413Z,42.80
2018-09-02T14:32:23.493Z,41.80
2018-09-02T14:34:51.561Z,41.60
2018-09-02T14:37:19.654Z,41.00
2018-09-02T14:39:47.715Z,41.00
2018-09-02T14:42:15.815Z,40.50
2018-09-02T14:44:43.915Z,40.40
2018-09-02T14:47:11.995Z,40.00
2018-09-02T14:49:40.089Z,39.80
2018-09-02T14:52:08.206Z,38.90
2018-09-02T14:54:36.274Z,39.90
2018-09-02T14:57:04.342Z,40.40
2018-09-02T14:59:32.442Z,40.70
2018-09-02T15:02:00.523Z,40.60
2018-09-02T15:04:28.592Z,40.40
2018-09-02T15:06:56.679Z,39.90
2018-09-02T15:09:24.783Z,40.10
2018-09-02T15:11:52.857Z,39.80
2018-09-02T15:14:21.011Z,39.20
2018-09-02T15:16:49.087Z,38.90
2018-09-02T15:19:17.139Z,39.40
2018-09-02T15:21:45.213Z,39.20
2018-09-02T15:24:13.288Z,38.70
2018-09-02T15:26:41.374Z,39.60
2018-09-02T15:29:09.452Z,38.50
2018-09-02T15:31:37.555Z,38.40
2018-09-02T15:34:05.888Z,39.30
2018-09-02T15:36:34.000Z,39.30
2018-09-02T15:39:02.074Z,37.30
2018-09-02T15:41:30.151Z,38.20
2018-09-02T15:43:58.272Z,38.00
2018-09-02T15:46:26.300Z,37.90
2018-09-02T15:48:54.371Z,38.30
2018-09-02T15:51:22.447Z,37.70
2018-09-02T15:53:50.648Z,38.20
2018-09-02T15:56:18.727Z,38.80
2018-09-02T15:58:46.798Z,38.60
2018-09-02T16:01:14.888Z,38.70
2018-09-02T16:03:42.993Z,39.50
2018-09-02T16:06:11.059Z,39.30
2018-09-02T16:08:39.160Z,39.30
2018-09-02T16:11:07.234Z,39.30
2018-09-02T16:13:35.359Z,39.20
2018-09-02T16:16:03.446Z,39.30
2018-09-02T16:18:31.526Z,39.20
2018-09-02T16:20:59.696Z,38.30
2018-09-02T16:23:27.753Z,38.30
2018-09-02T16:25:55.823Z,38.50
2018-09-02T16:28:23.906Z,38.40
2018-09-02T16:30:51.988Z,38.50
2018-09-02T16:33:20.066Z,38.60
2018-09-02T16:35:48.168Z,38.90
2018-09-02T16:38:16.294Z,39.20
2018-09-02T16:40:44.366Z,39.60
2018-09-02T16:43:12.459Z,39.80
2018-09-02T16:45:40.552Z,40.00
2018-09-02T16:48:08.727Z,40.10
2018-09-02T16:50:36.817Z,40.50
2018-09-02T16:53:04.891Z,40.70
2018-09-02T16:55:32.980Z,41.70
2018-09-02T16:58:01.051Z,41.30
2018-09-02T17:00:29.099Z,41.40
2018-09-02T17:02:57.674Z,41.60
2018-09-02T17:05:25.782Z,41.70
2018-09-02T17:07:53.864Z,41.90
2018-09-02T17:10:21.952Z,42.10
2018-09-02T17:12:50.394Z,42.30
2018-09-02T17:15:18.427Z,42.30
2018-09-02T17:17:46.486Z,42.60
2018-09-02T17:20:48.670Z,42.70
2018-09-02T17:23:17.097Z,42.80
2018-09-02T17:25:45.497Z,43.10
2018-09-02T17:28:13.817Z,43.30
2018-09-02T17:30:41.940Z,43.40
2018-09-02T17:33:11.298Z,43.60
2018-09-02T17:35:39.367Z,44.00
2018-09-02T17:38:07.481Z,44.30
2018-09-02T17:40:35.583Z,43.90
2018-09-02T17:43:03.699Z,44.20
2018-09-02T17:45:31.743Z,44.30
2018-09-02T17:47:59.827Z,44.50
2018-09-02T17:50:27.914Z,44.60
2018-09-02T17:52:55.983Z,44.70
2018-09-02T17:55:24.059Z,44.90
2018-09-02T17:57:52.123Z,45.60
2018-09-02T18:00:22.435Z,45.60
2018-09-02T18:02:50.499Z,46.40
2018-09-02T18:05:18.564Z,45.70
2018-09-02T18:07:46.693Z,45.50
2018-09-02T18:10:14.767Z,45.60
2018-09-02T18:12:42.998Z,45.80
2018-09-02T18:15:11.063Z,45.90
2018-09-02T18:17:39.132Z,45.90
2018-09-02T18:20:07.224Z,46.10
2018-09-02T18:22:35.287Z,46.20
2018-09-02T18:25:03.374Z,46.30
2018-09-02T18:27:33.669Z,46.40
2018-09-02T18:30:01.767Z,46.60
2018-09-02T18:32:30.956Z,46.70
2018-09-02T18:35:00.071Z,46.70
2018-09-02T18:37:28.148Z,46.80
2018-09-02T18:39:56.750Z,46.90
2018-09-02T18:42:24.955Z,46.90
2018-09-02T18:44:54.840Z,47.20
2018-09-02T18:47:22.906Z,47.00
2018-09-02T18:49:51.127Z,47.10
2018-09-02T18:52:19.191Z,47.10
2018-09-02T18:54:47.258Z,47.30
2018-09-02T18:57:15.336Z,47.40
2018-09-02T18:59:43.498Z,47.30
2018-09-02T19:02:11.579Z,47.50
2018-09-02T19:04:39.681Z,47.60
2018-09-02T19:07:08.195Z,47.50
2018-09-02T19:09:36.594Z,47.70
2018-09-02T19:12:04.678Z,47.70
2018-09-02T19:14:32.773Z,47.80
2018-09-02T19:17:00.832Z,48.60
2018-09-02T19:19:28.887Z,47.90
2018-09-02T19:21:56.962Z,47.90
2018-09-02T19:24:25.026Z,48.00
2018-09-02T19:26:53.096Z,48.10
2018-09-02T19:29:21.203Z,48.00
2018-09-02T19:31:49.753Z,49.00
2018-09-02T19:34:17.828Z,49.00
2018-09-02T19:36:45.915Z,48.90
2018-09-02T19:39:13.995Z,48.90
2018-09-02T19:41:42.119Z,48.90
2018-09-02T19:44:10.227Z,48.90
2018-09-02T19:46:38.312Z,49.00
2018-09-02T19:49:06.962Z,49.10
2018-09-02T19:51:35.109Z,49.10
2018-09-02T19:54:03.155Z,49.00
2018-09-02T19:56:31.231Z,49.20
2018-09-02T19:58:59.294Z,49.30
2018-09-02T20:01:27.363Z,49.30
2018-09-02T20:03:55.479Z,49.40
2018-09-02T20:06:23.549Z,49.50
2018-09-02T20:08:51.630Z,49.60
2018-09-02T20:11:19.706Z,49.70
2018-09-02T20:13:47.816Z,49.80
2018-09-02T20:16:15.879Z,50.30
2018-09-02T20:18:43.994Z,50.20
2018-09-02T20:21:12.051Z,50.20
2018-09-02T20:23:40.158Z,50.20
2018-09-02T20:26:08.211Z,50.20
2018-09-02T20:28:36.279Z,50.40
2018-09-02T20:31:04.582Z,50.40
2018-09-02T20:33:32.683Z,50.60
2018-09-02T20:36:00.800Z,50.60
2018-09-02T20:38:28.863Z,51.70
2018-09-02T20:40:56.942Z,50.90
2018-09-02T20:43:25.063Z,51.10
2018-09-02T20:45:53.111Z,51.20
2018-09-02T20:48:21.191Z,51.30
2018-09-02T20:50:49.259Z,51.40
2018-09-02T20:53:17.451Z,51.40
2018-09-02T20:55:45.546Z,51.60
2018-09-02T20:58:13.663Z,51.80
2018-09-02T21:00:42.418Z,53.00
2018-09-02T21:03:10.483Z,53.00
2018-09-02T21:05:38.695Z,52.80
2018-09-02T21:08:06.892Z,52.60
2018-09-02T21:10:34.990Z,52.50
2018-09-02T21:13:03.056Z,52.40
2018-09-02T21:15:31.130Z,52.50
2018-09-02T21:17:59.239Z,53.00
2018-09-02T21:20:27.330Z,52.50
2018-09-02T21:22:55.435Z,52.30
2018-09-02T21:25:23.824Z,53.30
2018-09-02T21:27:51.891Z,52.80
2018-09-02T21:30:19.995Z,52.90
2018-09-02T21:32:48.163Z,52.90
2018-09-02T21:35:16.974Z,52.80
2018-09-02T21:37:45.065Z,53.10
2018-09-02T21:40:13.129Z,53.20
2018-09-02T21:42:41.239Z,53.30
2018-09-02T21:45:09.334Z,53.90
2018-09-02T21:47:37.440Z,53.50
2018-09-02T21:50:05.875Z,53.50
2018-09-02T21:52:34.235Z,53.60
2018-09-02T21:55:02.337Z,53.40
2018-09-02T21:57:30.390Z,53.80
2018-09-02T21:59:58.483Z,53.80
2018-09-02T22:02:26.596Z,53.90
2018-09-02T22:04:54.728Z,54.00
2018-09-02T22:07:22.977Z,54.00
2018-09-02T22:09:51.032Z,54.10
2018-09-02T22:12:19.240Z,54.30
2018-09-02T22:14:47.353Z,54.20
2018-09-02T22:17:15.398Z,55.40
2018-09-02T22:19:43.669Z,55.20
2018-09-02T22:22:11.761Z,55.20
2018-09-02T22:24:39.834Z,55.10
2018-09-02T22:27:07.931Z,55.10
2018-09-02T22:29:36.020Z,54.90
2018-09-02T22:32:04.082Z,55.10
2018-09-02T22:34:32.311Z,55.10
2018-09-02T22:37:00.582Z,55.20
2018-09-02T22:39:28.686Z,55.30
2018-09-02T22:41:56.795Z,55.30
2018-09-02T22:44:24.814Z,55.50
2018-09-02T22:46:52.878Z,55.60
2018-09-02T22:49:20.987Z,55.60
2018-09-02T22:51:49.079Z,55.70
2018-09-02T22:54:17.142Z,55.80
2018-09-02T22:56:45.203Z,56.00
2018-09-02T22:59:13.275Z,56.00
2018-09-02T23:01:41.400Z,56.00
2018-09-02T23:04:09.472Z,56.10
2018-09-02T23:06:37.597Z,56.10
2018-09-02T23:09:06.642Z,56.90
2018-09-02T23:11:34.706Z,56.80
2018-09-02T23:14:02.795Z,56.70
2018-09-02T23:16:31.329Z,56.80
2018-09-02T23:18:59.431Z,56.90
2018-09-02T23:21:27.504Z,56.90
2018-09-02T23:23:55.574Z,56.70
2018-09-02T23:26:23.626Z,56.90
2018-09-02T23:28:51.694Z,57.50
2018-09-02T23:31:19.785Z,57.10
2018-09-02T23:33:47.867Z,57.20
2018-09-02T23:36:15.934Z,57.90
2018-09-02T23:38:44.006Z,57.40
2018-09-02T23:41:12.086Z,57.60
2018-09-02T23:43:40.190Z,57.80
2018-09-02T23:46:08.286Z,57.80
2018-09-02T23:48:36.346Z,58.10
2018-09-02T23:51:04.490Z,58.20
2018-09-02T23:53:32.554Z,58.20
2018-09-02T23:56:00.615Z,58.30
2018-09-02T23:58:28.708Z,58.90
